Time;durP1;ratioP1;P1;durP2;ratioP2;P2;SDS_P1;SDS_P2;PMS_P1;PMS_P2;Temp;Humidity;BMP_temperature;BMP_pressure;BME280_temperature;BME280_humidity;BME280_pressure;Samples;Min_cycle;Max_cycle;Signal;HPM_P1;HPM_P2
2023/03/15 00:02:25;;;;;;;12.90;7.60;;;;;;;4.73;70.86;94330.30;106561;1276;23905;-66
2023/03/15 00:04:53;;;;;;;7.80;4.20;;;;;;;4.73;70.49;94327.69;106661;1276;25259;-66
2023/03/15 00:07:24;;;;;;;6.50;3.80;;;;;;;4.73;70.45;94331.52;106557;1276;22778;-66
2023/03/15 00:09:53;;;;;;;7.50;3.50;;;;;;;4.72;70.36;94330.48;106606;1276;22527;-66
2023/03/15 00:12:22;;;;;;;8.50;4.20;;;;;;;4.70;70.31;94335.06;106637;1276;25374;-66
2023/03/15 00:14:50;;;;;;;13.60;6.50;;;;;;;4.65;70.58;94332.70;106619;1276;22515;-66
2023/03/15 00:17:21;;;;;;;10.90;5.20;;;;;;;4.62;70.29;94339.37;106636;1276;24329;-67
2023/03/15 00:19:49;;;;;;;7.10;3.60;;;;;;;4.59;70.30;94348.48;106616;1276;24388;-67
2023/03/15 00:22:17;;;;;;;5.50;3.90;;;;;;;4.59;70.39;94344.83;106674;1276;22626;-67
2023/03/15 00:24:46;;;;;;;4.30;2.60;;;;;;;4.59;70.56;94341.16;106611;1276;25326;-66
2023/03/15 00:27:14;;;;;;;6.50;3.60;;;;;;;4.62;70.65;94337.11;106641;1276;22537;-67
2023/03/15 00:29:42;;;;;;;4.80;2.80;;;;;;;4.68;70.60;94334.92;106597;1276;24199;-66
2023/03/15 00:32:10;;;;;;;3.20;2.20;;;;;;;4.76;70.34;94336.88;106578;1276;25265;-66
2023/03/15 00:34:39;;;;;;;5.20;2.70;;;;;;;4.82;70.38;94334.34;106615;1276;22537;-66
2023/03/15 00:37:07;;;;;;;7.30;3.30;;;;;;;4.86;70.27;94329.74;106573;1276;22528;-66
2023/03/15 00:39:37;;;;;;;4.30;2.70;;;;;;;4.88;70.12;94327.96;106546;1276;22520;-66
2023/03/15 00:42:08;;;;;;;5.30;3.40;;;;;;;4.89;70.22;94332.14;106620;1276;24342;-67
2023/03/15 00:44:36;;;;;;;5.50;2.80;;;;;;;4.83;70.12;94339.04;106543;1276;23877;-67
2023/03/15 00:47:05;;;;;;;12.10;3.20;;;;;;;4.77;70.83;94342.42;106594;1276;24223;-66
2023/03/15 00:49:33;;;;;;;3.70;2.60;;;;;;;4.82;71.06;94338.71;106555;1276;22652;-66
2023/03/15 00:52:02;;;;;;;3.70;2.80;;;;;;;4.89;70.83;94333.02;106598;1276;24823;-66
2023/03/15 00:54:32;;;;;;;4.50;2.40;;;;;;;4.90;70.49;94336.30;106639;1276;22523;-66
2023/03/15 00:57:01;;;;;;;5.80;2.70;;;;;;;4.83;69.91;94342.68;106621;1276;24231;-66
2023/03/15 00:59:33;;;;;;;5.70;3.10;;;;;;;4.77;69.85;94338.95;106636;1276;22636;-66
2023/03/15 01:02:04;;;;;;;4.30;2.90;;;;;;;4.72;69.60;94341.98;106605;1276;22587;-66
2023/03/15 01:04:34;;;;;;;5.30;3.00;;;;;;;4.68;69.60;94342.40;106616;1276;22516;-66
2023/03/15 01:07:03;;;;;;;5.20;2.60;;;;;;;4.60;70.45;94343.41;106592;1263;22652;-66
2023/03/15 01:09:31;;;;;;;5.40;3.10;;;;;;;4.50;70.65;94345.13;106661;1276;22730;-66
2023/03/15 01:11:59;;;;;;;4.60;2.30;;;;;;;4.47;70.48;94345.70;106541;1276;24205;-66
2023/03/15 01:14:28;;;;;;;4.10;2.90;;;;;;;4.45;70.11;94343.30;106563;1276;24331;-66
2023/03/15 01:16:58;;;;;;;8.50;3.20;;;;;;;4.41;69.99;94348.05;106735;1276;24062;-66
2023/03/15 01:19:26;;;;;;;6.60;3.50;;;;;;;4.33;70.02;94345.21;106557;1270;22959;-67
2023/03/15 01:21:54;;;;;;;6.20;3.00;;;;;;;4.25;70.48;94348.45;106557;1276;25258;-66
2023/03/15 01:24:23;;;;;;;4.90;2.80;;;;;;;4.23;70.38;94350.23;106561;1276;23878;-66
2023/03/15 01:26:51;;;;;;;4.50;2.70;;;;;;;4.21;70.53;94349.56;106569;1276;22524;-66
2023/03/15 01:29:19;;;;;;;5.90;3.80;;;;;;;4.20;71.20;94343.30;106635;1276;25353;-67
2023/03/15 01:31:47;;;;;;;7.90;4.40;;;;;;;4.18;71.40;94344.91;106550;1276;24216;-66
2023/03/15 01:34:16;;;;;;;8.70;5.10;;;;;;;4.15;71.73;94344.94;106628;1276;24438;-66
2023/03/15 01:36:44;;;;;;;8.20;5.30;;;;;;;4.13;71.77;94344.96;106618;1276;22520;-66
2023/03/15 01:39:13;;;;;;;8.70;4.70;;;;;;;4.11;71.76;94338.39;106569;1276;24240;-66
2023/03/15 01:41:44;;;;;;;8.00;4.60;;;;;;;4.12;71.34;94335.95;106755;1276;22525;-66
2023/03/15 01:44:18;;;;;;;6.90;4.30;;;;;;;4.13;71.45;94334.36;106649;1276;24246;-66
2023/03/15 01:46:47;;;;;;;6.70;4.70;;;;;;;4.11;72.01;94333.34;106571;1276;22521;-66
2023/03/15 01:49:24;;;;;;;8.00;4.30;;;;;;;4.08;71.82;94334.59;106550;1276;24377;-66
2023/03/15 01:52:04;;;;;;;8.70;4.50;;;;;;;4.06;72.36;94328.54;106581;1276;24444;-66
2023/03/15 01:54:51;;;;;;;10.00;5.30;;;;;;;4.04;72.09;94316.02;106633;1276;22520;-66
2023/03/15 01:57:35;;;;;;;7.50;4.30;;;;;;;4.05;72.42;94317.42;106571;1276;22592;-66
2023/03/15 02:00:10;;;;;;;6.80;4.60;;;;;;;4.04;72.36;94314.48;106594;1276;22517;-66
2023/03/15 02:03:16;;;;;;;7.80;4.30;;;;;;;4.06;72.64;94311.84;106401;1254;22532;-66
2023/03/15 02:05:55;;;;;;;8.40;4.50;;;;;;;4.05;72.57;94313.06;106597;1276;24044;-66
2023/03/15 02:08:42;;;;;;;8.40;4.50;;;;;;;4.09;72.60;94306.74;106620;1276;22516;-66
2023/03/15 02:11:12;;;;;;;7.00;4.20;;;;;;;4.11;72.97;94311.08;106658;1276;22512;-66
2023/03/15 02:13:40;;;;;;;10.10;4.70;;;;;;;4.14;72.96;94310.70;106619;1276;24326;-66
2023/03/15 02:16:10;;;;;;;11.30;5.50;;;;;;;4.15;73.12;94302.13;106631;1276;25462;-66
2023/03/15 02:18:45;;;;;;;10.50;4.80;;;;;;;4.20;73.11;94296.84;106586;1276;25322;-66
2023/03/15 02:21:19;;;;;;;7.40;4.60;;;;;;;4.23;73.34;94306.20;106583;1276;24250;-66
2023/03/15 02:24:02;;;;;;;7.90;4.60;;;;;;;4.19;73.12;94314.07;106547;1276;25426;-66
2023/03/15 02:26:52;;;;;;;7.60;4.50;;;;;;;4.22;73.80;94320.30;106638;1276;22521;-66
2023/03/15 02:29:22;;;;;;;8.30;4.40;;;;;;;4.35;73.65;94304.63;106602;1276;24350;-66
2023/03/15 02:31:52;;;;;;;10.30;5.10;;;;;;;4.45;73.30;94302.37;106587;1276;24317;-66
2023/03/15 02:34:24;;;;;;;8.70;4.20;;;;;;;4.51;73.17;94307.33;106733;1276;22518;-66
2023/03/15 02:36:53;;;;;;;13.10;5.30;;;;;;;4.58;72.93;94307.22;106556;1276;23155;-66
2023/03/15 02:39:23;;;;;;;10.70;4.50;;;;;;;4.61;72.87;94313.09;106625;1276;22524;-66
2023/03/15 02:41:56;;;;;;;14.60;6.20;;;;;;;4.58;72.83;94316.44;106594;1276;24276;-66
2023/03/15 02:44:36;;;;;;;10.20;5.90;;;;;;;4.63;72.92;94315.34;106611;1276;22520;-66
2023/03/15 02:47:26;;;;;;;9.70;5.80;;;;;;;4.68;72.74;94317.84;106578;1276;25358;-66
2023/03/15 02:49:54;;;;;;;10.80;5.70;;;;;;;4.71;72.45;94322.15;106618;1276;25687;-66
2023/03/15 02:52:23;;;;;;;12.70;5.30;;;;;;;4.67;72.14;94325.02;106357;1276;25217;-66
2023/03/15 02:54:51;;;;;;;12.80;5.20;;;;;;;4.55;72.42;94324.68;106558;1276;22687;-66
2023/03/15 02:57:19;;;;;;;12.00;5.10;;;;;;;4.50;72.01;94322.32;106554;1276;22530;-66
2023/03/15 02:59:50;;;;;;;8.70;4.50;;;;;;;4.48;72.35;94322.51;106625;1254;24205;-66
2023/03/15 03:02:18;;;;;;;7.40;3.80;;;;;;;4.42;73.16;94323.31;106534;1276;22515;-66
2023/03/15 03:04:47;;;;;;;9.00;5.00;;;;;;;4.33;73.04;94318.74;106492;1276;24809;-66
2023/03/15 03:07:18;;;;;;;8.30;4.70;;;;;;;4.31;73.23;94319.30;106524;1276;25342;-65
2023/03/15 03:09:59;;;;;;;6.50;3.90;;;;;;;4.28;73.61;94324.05;106597;1270;22651;-66
2023/03/15 03:12:30;;;;;;;6.60;4.20;;;;;;;4.22;73.47;94318.92;106635;1276;24329;-67
2023/03/15 03:14:58;;;;;;;8.30;3.70;;;;;;;4.21;73.64;94316.49;106544;1276;22630;-66
2023/03/15 03:17:27;;;;;;;7.80;4.80;;;;;;;4.18;73.50;94310.27;106539;1276;22816;-66
2023/03/15 03:19:56;;;;;;;8.90;5.00;;;;;;;4.18;73.13;94309.05;106588;1276;24259;-66
2023/03/15 03:22:29;;;;;;;7.20;4.20;;;;;;;4.17;73.16;94311.67;106592;1276;24355;-66
2023/03/15 03:24:57;;;;;;;10.50;5.00;;;;;;;4.12;73.24;94320.79;106568;1276;23887;-66
2023/03/15 03:27:26;;;;;;;7.50;3.80;;;;;;;4.09;73.91;94318.91;106514;1276;24218;-66
2023/03/15 03:29:55;;;;;;;7.80;3.90;;;;;;;4.03;74.73;94321.27;106557;1276;25262;-66
2023/03/15 03:32:23;;;;;;;8.50;4.30;;;;;;;3.99;74.67;94317.85;106594;1276;24384;-66
2023/03/15 03:34:52;;;;;;;6.70;4.40;;;;;;;4.00;74.32;94310.52;106663;1276;22517;-66
2023/03/15 03:37:22;;;;;;;9.50;5.20;;;;;;;4.02;74.19;94311.19;106597;1276;25176;-66
2023/03/15 03:40:17;;;;;;;11.30;6.40;;;;;;;4.00;74.48;94312.98;106539;1276;22635;-66
2023/03/15 03:42:45;;;;;;;9.30;5.90;;;;;;;3.96;74.49;94313.52;106611;1276;22578;-66
2023/03/15 03:45:15;;;;;;;7.30;4.10;;;;;;;3.95;74.38;94304.88;106378;1276;25393;-66
2023/03/15 03:47:44;;;;;;;6.70;4.10;;;;;;;3.93;74.40;94304.19;106631;1276;24257;-66
2023/03/15 03:50:12;;;;;;;8.80;4.10;;;;;;;3.93;74.39;94305.23;106529;1276;25262;-66
2023/03/15 03:52:42;;;;;;;11.10;5.50;;;;;;;3.88;75.08;94306.86;106578;1276;22579;-66
2023/03/15 03:55:15;;;;;;;7.60;5.10;;;;;;;3.79;74.74;94299.48;106606;1276;22660;-66
2023/03/15 03:57:44;;;;;;;7.00;3.80;;;;;;;3.78;74.74;94292.03;106641;1276;22613;-66
2023/03/15 04:00:18;;;;;;;10.60;5.80;;;;;;;3.80;75.22;94285.58;106583;1260;22925;-66
2023/03/15 04:02:46;;;;;;;25.10;9.60;;;;;;;3.79;75.48;94286.46;106591;1276;24199;-66
2023/03/15 04:05:16;;;;;;;17.20;8.30;;;;;;;3.79;75.56;94287.51;106651;1276;22529;-66
2023/03/15 04:07:44;;;;;;;17.30;9.20;;;;;;;3.75;75.39;94286.16;106606;1276;22781;-66
2023/03/15 04:10:15;;;;;;;9.00;4.00;;;;;;;3.69;75.58;94290.07;106623;1276;23916;-66
2023/03/15 04:12:46;;;;;;;10.70;4.20;;;;;;;3.70;75.61;94289.36;106647;1276;22521;-66
2023/03/15 04:15:15;;;;;;;8.60;4.30;;;;;;;3.68;75.73;94287.30;106613;1276;22656;-67
2023/03/15 04:17:43;;;;;;;16.40;7.70;;;;;;;3.70;75.67;94282.93;106616;1276;24445;-65
2023/03/15 04:20:12;;;;;;;21.40;10.00;;;;;;;3.70;75.58;94281.00;106644;1276;22517;-64
2023/03/15 04:22:48;;;;;;;18.60;10.10;;;;;;;3.73;75.76;94281.52;106591;1276;24224;-64
2023/03/15 04:25:20;;;;;;;7.70;4.40;;;;;;;3.71;75.38;94282.05;106635;1276;24035;-64
2023/03/15 04:28:01;;;;;;;9.40;5.20;;;;;;;3.71;75.48;94274.23;106648;1276;25411;-64
2023/03/15 04:30:43;;;;;;;11.40;5.60;;;;;;;3.72;75.51;94273.17;106591;1276;22798;-64
2023/03/15 04:33:37;;;;;;;12.60;7.60;;;;;;;3.78;75.50;94279.67;106505;1276;22646;-64
2023/03/15 04:36:33;;;;;;;11.10;6.00;;;;;;;3.70;75.08;94279.63;106605;1276;25367;-64
2023/03/15 04:39:22;;;;;;;10.50;5.00;;;;;;;3.67;75.38;94278.44;106461;1276;24352;-64
2023/03/15 04:42:11;;;;;;;11.20;8.00;;;;;;;3.65;75.12;94280.55;106460;1276;22632;-64
2023/03/15 04:44:42;;;;;;;11.70;6.90;;;;;;;3.58;75.18;94286.21;106364;1276;24196;-64
2023/03/15 04:47:42;;;;;;;10.60;6.60;;;;;;;3.53;75.19;94285.23;106601;1276;25616;-64
2023/03/15 04:50:34;;;;;;;8.60;4.60;;;;;;;3.49;75.24;94286.68;106356;1276;22931;-64
2023/03/15 04:53:24;;;;;;;6.50;3.70;;;;;;;3.50;75.33;94285.80;106570;1276;25400;-64
2023/03/15 04:55:52;;;;;;;7.00;4.00;;;;;;;3.48;75.33;94283.90;106600;1276;22637;-64
2023/03/15 04:58:40;;;;;;;7.80;4.00;;;;;;;3.49;75.08;94288.06;106592;1276;24775;-64
2023/03/15 05:01:31;;;;;;;257.50;71.30;;;;;;;3.45;75.48;94289.50;106563;1276;22514;-64
2023/03/15 05:04:25;;;;;;;99.30;36.00;;;;;;;3.40;76.10;94288.52;106462;1276;22518;-64
2023/03/15 05:07:13;;;;;;;101.00;36.70;;;;;;;3.39;76.17;94295.48;106800;1276;22559;-64
2023/03/15 05:09:55;;;;;;;57.00;24.60;;;;;;;3.43;76.08;94295.42;106618;1276;24396;-64
2023/03/15 05:12:59;;;;;;;20.10;10.10;;;;;;;3.49;75.80;94296.58;106091;1283;22546;-64
2023/03/15 05:15:37;;;;;;;8.60;4.50;;;;;;;3.54;75.60;94297.21;106530;1276;24197;-64
2023/03/15 05:18:32;;;;;;;9.30;4.40;;;;;;;3.60;75.36;94296.96;106517;1276;24204;-64
2023/03/15 05:21:19;;;;;;;5.80;3.70;;;;;;;3.63;74.98;94297.64;106564;1276;22528;-64
2023/03/15 05:24:06;;;;;;;24.30;16.50;;;;;;;3.64;74.92;94297.08;106559;1276;22781;-64
2023/03/15 05:26:58;;;;;;;41.20;18.30;;;;;;;3.63;75.53;94301.61;106555;1276;22518;-64
2023/03/15 05:29:52;;;;;;;47.90;22.30;;;;;;;3.64;75.96;94300.92;106573;1276;22783;-65
2023/03/15 05:32:43;;;;;;;45.50;21.00;;;;;;;3.65;76.53;94296.73;106562;1276;22528;-64
2023/03/15 05:35:31;;;;;;;30.60;16.40;;;;;;;3.66;76.30;94296.19;106580;1276;25847;-64
2023/03/15 05:38:18;;;;;;;14.90;8.40;;;;;;;3.72;76.19;94300.81;106601;1276;23186;-64
2023/03/15 05:41:00;;;;;;;8.50;5.30;;;;;;;3.77;76.01;94300.23;106572;1276;25323;-64
2023/03/15 05:43:38;;;;;;;5.70;3.70;;;;;;;3.84;75.74;94297.70;106569;1276;22527;-64
2023/03/15 05:46:26;;;;;;;5.60;3.40;;;;;;;3.91;75.56;94298.48;106574;1276;25264;-64
2023/03/15 05:48:59;;;;;;;4.90;2.90;;;;;;;3.98;75.41;94304.81;106617;1276;24241;-64
2023/03/15 05:51:33;;;;;;;;;;;;;;;4.03;75.26;94298.64;106632;1276;22966;-64
2023/03/15 05:54:13;;;;;;;19.40;9.40;;;;;;;4.07;75.39;94301.20;106586;1276;24297;-64
2023/03/15 05:57:11;;;;;;;24.00;10.00;;;;;;;4.11;75.71;94299.75;106429;1276;22874;-66
2023/03/15 05:59:59;;;;;;;36.10;18.70;;;;;;;4.14;77.23;94298.48;106070;1276;22667;-64
2023/03/15 06:02:45;;;;;;;33.90;18.50;;;;;;;4.14;77.13;94299.20;106475;1272;22517;-65
2023/03/15 06:05:34;;;;;;;25.80;14.50;;;;;;;4.15;77.44;94303.18;106426;1276;24202;-66
2023/03/15 06:08:04;;;;;;;28.20;15.00;;;;;;;4.18;77.13;94304.70;106796;1275;24383;-66
2023/03/15 06:10:33;;;;;;;27.80;14.40;;;;;;;4.22;76.90;94308.11;106843;1276;24255;-68
2023/03/15 06:13:05;;;;;;;25.00;13.70;;;;;;;4.25;76.43;94309.30;106952;1276;22520;-66
2023/03/15 06:15:34;;;;;;;27.40;14.60;;;;;;;4.27;76.10;94315.00;106604;1276;24253;-66
2023/03/15 06:18:03;;;;;;;24.80;13.30;;;;;;;4.30;76.13;94314.96;106459;1276;24249;-68
2023/03/15 06:20:32;;;;;;;22.40;12.50;;;;;;;4.35;76.25;94317.16;107476;1276;24250;-68
2023/03/15 06:23:06;;;;;;;23.80;13.10;;;;;;;4.41;76.26;94314.64;106457;1276;24208;-66
2023/03/15 06:25:41;;;;;;;21.30;12.80;;;;;;;4.46;75.98;94304.96;106566;1276;22560;-68
2023/03/15 06:28:09;;;;;;;22.10;12.20;;;;;;;4.51;75.49;94302.45;106811;1276;24246;-68
2023/03/15 06:30:40;;;;;;;24.60;13.10;;;;;;;4.53;75.11;94314.25;106517;1276;22560;-65
2023/03/15 06:33:09;;;;;;;23.90;13.10;;;;;;;4.52;76.86;94322.11;106848;1276;24479;-68
2023/03/15 06:35:37;;;;;;;48.70;26.20;;;;;;;4.53;76.46;94323.31;106518;1276;22523;-66
2023/03/15 06:38:06;;;;;;;47.70;26.40;;;;;;;4.57;75.93;94317.15;106928;1276;25209;-68
2023/03/15 06:40:34;;;;;;;33.00;19.60;;;;;;;4.67;75.94;94321.17;106573;1276;23645;-66
2023/03/15 06:43:05;;;;;;;33.10;18.50;;;;;;;4.77;75.89;94315.42;106862;1276;25591;-68
2023/03/15 06:45:33;;;;;;;32.30;18.20;;;;;;;4.89;75.83;94319.23;106620;1276;22511;-67
2023/03/15 06:48:02;;;;;;;28.70;17.70;;;;;;;4.97;75.77;94324.51;106557;1276;24406;-66
2023/03/15 06:50:30;;;;;;;30.60;17.60;;;;;;;5.08;75.88;94327.79;106646;1276;22793;-68
2023/03/15 06:53:14;;;;;;;33.20;20.30;;;;;;;5.23;75.83;94329.45;106563;1276;23007;-65
2023/03/15 06:55:43;;;;;;;42.40;25.60;;;;;;;5.36;75.27;94330.60;106738;1276;22513;-68
2023/03/15 06:58:12;;;;;;;53.70;28.30;;;;;;;5.43;74.40;94334.13;108698;1276;24218;-67
2023/03/15 07:00:41;;;;;;;57.30;31.00;;;;;;;5.47;73.93;94333.70;109539;1276;22521;-67
2023/03/15 07:03:09;;;;;;;61.80;33.50;;;;;;;5.48;74.01;94337.36;106683;1276;25234;-68
2023/03/15 07:05:37;;;;;;;59.90;32.90;;;;;;;5.52;73.88;94334.46;106753;1276;22519;-68
2023/03/15 07:08:06;;;;;;;70.70;36.60;;;;;;;5.58;73.79;94331.92;106500;1276;22565;-67
2023/03/15 07:10:35;;;;;;;55.70;28.40;;;;;;;5.60;73.53;94325.95;106654;1274;22818;-69
2023/03/15 07:13:05;;;;;;;54.50;31.10;;;;;;;5.60;73.56;94322.81;106470;1276;22997;-67
2023/03/15 07:15:35;;;;;;;60.90;34.60;;;;;;;5.57;73.66;94320.95;106822;1276;22520;-66
2023/03/15 07:18:04;;;;;;;64.20;33.50;;;;;;;5.64;73.91;94314.17;106499;1276;22619;-65
2023/03/15 07:20:32;;;;;;;50.10;26.30;;;;;;;5.73;73.56;94311.73;106334;1276;26516;-67
2023/03/15 07:23:04;;;;;;;55.70;32.10;;;;;;;5.73;73.79;94313.99;106526;1276;25272;-69
2023/03/15 07:25:32;;;;;;;60.50;34.70;;;;;;;5.71;73.93;94319.98;106275;1276;25256;-67
2023/03/15 07:28:15;;;;;;;58.80;31.30;;;;;;;5.68;73.00;94313.24;106472;1276;22382;-71
2023/03/15 07:30:53;;;;;;;51.10;30.80;;;;;;;5.72;72.42;94300.25;106319;1276;25764;-69
2023/03/15 07:33:23;;;;;;;45.50;26.70;;;;;;;5.76;71.28;94296.98;106459;1276;24339;-69
2023/03/15 07:35:52;;;;;;;46.80;27.00;;;;;;;5.77;71.73;94302.92;106663;1276;22520;-69
2023/03/15 07:38:22;;;;;;;42.50;24.50;;;;;;;5.83;72.02;94312.23;106506;1276;22517;-68
2023/03/15 07:40:51;;;;;;;40.60;24.30;;;;;;;5.84;71.99;94320.91;106540;1276;25393;-74
2023/03/15 07:43:20;;;;;;;51.80;29.50;;;;;;;5.78;71.61;94332.21;106475;1276;24070;-71
2023/03/15 07:45:50;;;;;;;53.30;32.40;;;;;;;5.78;71.69;94341.63;107337;1276;25399;-71
2023/03/15 07:48:18;;;;;;;59.70;33.70;;;;;;;5.81;71.62;94348.38;106779;1276;22781;-68
2023/03/15 07:50:46;;;;;;;57.20;30.40;;;;;;;5.87;71.69;94352.27;106398;1276;22524;-68
2023/03/15 07:53:15;;;;;;;56.40;30.50;;;;;;;5.91;71.43;94357.09;106595;1276;24070;-70
2023/03/15 07:55:46;;;;;;;28.70;18.30;;;;;;;5.93;70.79;94361.23;106426;1276;24253;-70
2023/03/15 07:58:15;;;;;;;24.30;13.50;;;;;;;5.95;70.26;94363.67;106432;1276;24201;-69
2023/03/15 08:00:45;;;;;;;26.90;14.40;;;;;;;5.96;69.04;94356.67;106337;1276;22634;-70
2023/03/15 08:03:13;;;;;;;27.30;15.90;;;;;;;5.97;69.41;94354.20;106368;1276;22528;-72
2023/03/15 08:05:42;;;;;;;34.80;16.90;;;;;;;5.99;69.35;94353.81;110334;1276;22183;-70
2023/03/15 08:08:10;;;;;;;34.90;14.70;;;;;;;5.98;69.08;94348.23;106494;1276;25818;-68
2023/03/15 08:10:38;;;;;;;41.90;16.00;;;;;;;5.97;68.41;94334.66;106492;1276;23027;-68
2023/03/15 08:13:07;;;;;;;33.40;14.50;;;;;;;5.95;68.35;94322.64;106409;1276;22519;-68
2023/03/15 08:15:35;;;;;;;34.60;14.30;;;;;;;5.93;68.79;94306.96;106387;1276;24246;-69
2023/03/15 08:18:03;;;;;;;22.40;9.20;;;;;;;5.93;68.65;94291.60;106435;1276;22570;-68
2023/03/15 08:20:33;;;;;;;18.50;8.20;;;;;;;5.96;68.61;94288.77;106760;1276;25217;-67
2023/03/15 08:23:01;;;;;;;20.10;8.50;;;;;;;6.02;68.52;94304.36;106471;1276;22722;-67
2023/03/15 08:25:30;;;;;;;21.40;9.60;;;;;;;6.05;68.25;94312.29;107065;1274;22650;-67
2023/03/15 08:27:58;;;;;;;18.20;8.70;;;;;;;6.10;67.81;94302.94;106584;1276;22635;-70
2023/03/15 08:30:26;;;;;;;28.50;10.20;;;;;;;6.17;67.60;94302.95;106496;1276;22645;-69
2023/03/15 08:32:54;;;;;;;27.30;10.10;;;;;;;6.23;67.55;94320.98;106531;1276;22512;-66
2023/03/15 08:35:23;;;;;;;32.00;18.20;;;;;;;6.31;67.76;94319.59;106435;1276;22544;-69
2023/03/15 08:37:51;;;;;;;36.00;16.60;;;;;;;6.36;68.44;94310.90;106466;1276;24378;-69
2023/03/15 08:40:23;;;;;;;37.50;19.10;;;;;;;6.41;69.11;94315.33;106555;1276;25396;-69
2023/03/15 08:42:53;;;;;;;78.00;32.60;;;;;;;6.46;69.56;94325.70;106793;1276;24258;-69
2023/03/15 08:45:24;;;;;;;43.60;22.00;;;;;;;6.51;69.28;94325.95;106764;1276;22756;-66
2023/03/15 08:47:56;;;;;;;218.90;75.80;;;;;;;6.59;69.05;94325.42;106429;1270;25462;-71
2023/03/15 08:50:26;;;;;;;93.30;40.20;;;;;;;6.66;68.87;94325.06;106583;1276;24250;-71
2023/03/15 08:52:55;;;;;;;40.00;19.90;;;;;;;6.77;69.20;94320.97;106702;1268;24243;-67
2023/03/15 08:55:23;;;;;;;30.30;14.30;;;;;;;6.87;68.54;94315.13;106697;1276;24266;-74
2023/03/15 08:57:51;;;;;;;37.40;19.10;;;;;;;7.01;68.46;94316.87;106405;1264;24221;-69
2023/03/15 09:00:21;;;;;;;45.20;20.60;;;;;;;7.15;68.36;94318.95;106318;1276;24587;-68
2023/03/15 09:02:54;;;;;;;33.30;17.60;;;;;;;7.28;66.60;94317.94;106476;1276;22591;-70
2023/03/15 09:05:24;;;;;;;37.70;19.40;;;;;;;7.40;66.49;94312.52;106439;1276;27646;-68
2023/03/15 09:07:52;;;;;;;43.50;22.10;;;;;;;7.53;66.55;94303.77;108414;1276;22533;-68
2023/03/15 09:10:21;;;;;;;32.70;16.40;;;;;;;7.66;65.86;94303.75;106587;1276;22528;-68
2023/03/15 09:12:52;;;;;;;25.40;14.10;;;;;;;7.75;64.65;94315.40;106448;1276;22535;-69
2023/03/15 09:15:21;;;;;;;27.80;13.90;;;;;;;7.86;64.40;94319.84;106539;1277;22524;-71
2023/03/15 09:17:52;;;;;;;25.00;15.00;;;;;;;8.01;64.97;94316.06;106415;1277;24370;-66
2023/03/15 09:20:26;;;;;;;41.40;23.40;;;;;;;8.19;64.94;94305.03;106430;1277;24095;-68
2023/03/15 09:22:56;;;;;;;29.40;18.20;;;;;;;8.41;65.18;94306.67;106496;1276;24810;-67
2023/03/15 09:25:26;;;;;;;24.60;15.80;;;;;;;8.63;64.56;94301.98;106526;1276;22640;-67
2023/03/15 09:27:54;;;;;;;24.40;13.40;;;;;;;8.81;64.00;94304.70;106355;1253;24196;-69
2023/03/15 09:30:23;;;;;;;23.80;13.00;;;;;;;9.02;64.44;94304.20;106364;1276;24150;-75
2023/03/15 09:32:51;;;;;;;26.40;16.80;;;;;;;9.27;64.69;94304.05;106419;1276;22527;-74
2023/03/15 09:35:20;;;;;;;12.30;7.90;;;;;;;9.52;64.37;94305.30;106577;1276;22753;-80
2023/03/15 09:37:49;;;;;;;15.50;11.00;;;;;;;9.76;64.22;94303.94;107513;1276;23906;-81
2023/03/15 09:40:20;;;;;;;12.20;8.30;;;;;;;9.91;61.90;94304.06;107354;1276;22520;-77
2023/03/15 09:43:00;;;;;;;9.50;6.30;;;;;;;10.01;58.69;94304.42;106566;1276;25864;-67
2023/03/15 09:45:47;;;;;;;7.40;5.70;;;;;;;10.06;58.33;94299.49;106491;1276;25068;-81
2023/03/15 09:48:18;;;;;;;10.40;6.10;;;;;;;10.08;57.50;94297.31;106855;1276;22627;-73
2023/03/15 09:51:02;;;;;;;8.50;6.60;;;;;;;10.15;58.52;94299.67;106667;1276;25468;-73
2023/03/15 09:53:39;;;;;;;10.10;6.80;;;;;;;10.23;55.36;94296.90;107815;1276;22524;-77
2023/03/15 09:56:30;;;;;;;8.00;5.80;;;;;;;10.32;54.79;94298.55;106645;1276;22525;-72
2023/03/15 09:59:01;;;;;;;11.10;6.90;;;;;;;10.45;54.71;94290.98;106548;1276;26631;-71
2023/03/15 10:01:40;;;;;;;9.70;6.40;;;;;;;10.57;53.88;94294.23;106592;1276;22545;-77
2023/03/15 10:04:29;;;;;;;11.30;7.00;;;;;;;10.61;52.15;94291.23;106721;1276;25288;-84
2023/03/15 10:07:01;;;;;;;9.40;6.20;;;;;;;10.67;53.96;94295.42;106538;1276;22521;-77
2023/03/15 10:09:32;;;;;;;9.80;6.10;;;;;;;10.79;54.51;94299.52;106422;1272;25492;-70
2023/03/15 10:12:12;;;;;;;11.30;7.60;;;;;;;10.89;52.86;94303.71;106364;1276;23006;-73
2023/03/15 10:15:17;;;;;;;9.70;7.60;;;;;;;10.90;50.93;94306.80;106579;1276;25468;-72
2023/03/15 10:17:58;;;;;;;7.10;4.90;;;;;;;10.93;51.39;94309.86;106487;1276;22523;-72
2023/03/15 10:20:35;;;;;;;8.90;5.20;;;;;;;10.98;50.73;94315.80;106401;1276;25240;-71
2023/03/15 10:23:35;;;;;;;9.30;7.40;;;;;;;11.06;51.91;94314.98;106398;1272;22623;-74
2023/03/15 10:26:08;;;;;;;42.50;25.10;;;;;;;11.15;52.33;94318.45;106694;1276;22776;-74
2023/03/15 10:28:38;;;;;;;10.80;6.50;;;;;;;11.24;51.82;94323.00;106535;1276;22530;-70
2023/03/15 10:31:18;;;;;;;5.80;4.60;;;;;;;11.33;50.83;94319.48;110071;1276;24041;-69
2023/03/15 10:33:59;;;;;;;7.20;4.90;;;;;;;11.49;51.35;94316.88;106847;1276;23429;-74
2023/03/15 10:36:28;;;;;;;7.70;4.50;;;;;;;11.67;50.20;94316.98;106690;1267;24378;-69
2023/03/15 10:38:57;;;;;;;7.20;4.40;;;;;;;11.84;49.09;94310.61;106324;1276;22643;-75
2023/03/15 10:41:36;;;;;;;6.30;4.00;;;;;;;12.02;48.63;94307.38;106445;1276;22530;-71
2023/03/15 10:44:17;;;;;;;6.80;4.30;;;;;;;12.13;47.67;94296.98;106518;1276;22638;-70
2023/03/15 10:47:05;;;;;;;4.50;3.90;;;;;;;12.31;48.44;94297.23;106359;1276;22792;-71
2023/03/15 10:49:54;;;;;;;7.20;4.30;;;;;;;12.46;48.23;94292.81;106384;1276;22551;-70
2023/03/15 10:52:27;;;;;;;5.60;4.20;;;;;;;12.56;47.03;94290.59;106416;1276;22733;-68
2023/03/15 10:54:55;;;;;;;5.90;4.00;;;;;;;12.62;47.08;94289.27;107271;1276;24261;-74
2023/03/15 10:57:36;;;;;;;7.10;4.30;;;;;;;12.67;46.56;94289.23;106409;1276;22646;-72
2023/03/15 11:00:18;;;;;;;7.40;5.20;;;;;;;12.60;46.05;94286.52;106719;1276;22521;-69
2023/03/15 11:02:59;;;;;;;7.80;4.70;;;;;;;12.51;45.68;94285.54;106696;1276;22525;-70
2023/03/15 11:05:37;;;;;;;6.60;4.10;;;;;;;12.48;46.45;94285.53;107852;1270;22816;-69
2023/03/15 11:08:14;;;;;;;5.40;4.20;;;;;;;12.45;46.21;94280.55;106500;1276;25374;-69
2023/03/15 11:10:43;;;;;;;6.50;3.70;;;;;;;12.45;46.80;94285.10;106584;1276;25449;-70
2023/03/15 11:13:30;;;;;;;6.20;4.30;;;;;;;12.44;46.34;94286.08;106580;1276;26808;-69
2023/03/15 11:16:02;;;;;;;6.40;4.00;;;;;;;12.40;46.63;94283.05;106548;1276;24271;-69
2023/03/15 11:18:31;;;;;;;6.10;4.20;;;;;;;12.37;46.68;94287.26;109682;1276;25220;-67
2023/03/15 11:21:04;;;;;;;5.00;4.10;;;;;;;12.34;46.67;94285.10;106647;1276;22510;-70
2023/03/15 11:23:37;;;;;;;7.30;4.90;;;;;;;12.31;45.97;94286.31;106753;1276;22755;-70
2023/03/15 11:26:18;;;;;;;6.20;4.00;;;;;;;12.25;45.91;94286.06;106713;1276;25354;-69
2023/03/15 11:29:16;;;;;;;7.40;5.60;;;;;;;12.11;45.91;94287.91;106574;1276;22598;-70
2023/03/15 11:31:46;;;;;;;5.90;4.10;;;;;;;12.04;46.55;94280.50;106600;1276;26710;-70
2023/03/15 11:34:37;;;;;;;5.10;3.80;;;;;;;11.95;46.63;94285.12;106616;1276;22634;-69
2023/03/15 11:37:18;;;;;;;7.30;3.90;;;;;;;11.88;47.36;94287.88;106919;1276;22530;-68
2023/03/15 11:40:15;;;;;;;6.40;4.20;;;;;;;11.82;47.40;94284.61;106770;1276;22528;-68
2023/03/15 11:42:50;;;;;;;7.10;4.00;;;;;;;11.75;47.58;94286.52;106709;1276;24924;-68
2023/03/15 11:45:39;;;;;;;5.40;3.90;;;;;;;11.69;47.51;94284.84;106588;1276;24349;-68
2023/03/15 11:48:46;;;;;;;5.60;4.00;;;;;;;11.57;47.36;94282.88;106579;1276;22646;-68
2023/03/15 11:51:15;;;;;;;5.50;3.90;;;;;;;11.51;47.37;94284.91;106901;1276;22775;-68
2023/03/15 11:54:05;;;;;;;7.00;3.90;;;;;;;11.48;47.94;94288.20;106973;1276;25311;-69
2023/03/15 11:56:42;;;;;;;5.80;4.00;;;;;;;11.49;47.91;94281.67;106690;1276;22538;-68
2023/03/15 11:59:32;;;;;;;5.60;4.20;;;;;;;11.49;48.37;94278.84;106587;1276;22522;-69